Time;durP1;ratioP1;P1;durP2;ratioP2;P2;SDS_P1;SDS_P2;PMS_P1;PMS_P2;Temp;Humidity;BMP_temperature;BMP_pressure;BME280_temperature;BME280_humidity;BME280_pressure;Samples;Min_cycle;Max_cycle;Signal;HPM_P1;HPM_P2
2022/02/09 00:04:58;;;;;;;9.00;4.20;;;;;;;0.97;64.66;99921.62;1730183;82;21036;-73
2022/02/09 00:07:17;;;;;;;8.15;4.40;;;;;;;0.96;64.80;99929.85;1710267;82;21068;-73
2022/02/09 00:09:44;;;;;;;8.78;3.98;;;;;;;0.95;64.92;99933.37;1701040;83;21463;-73
2022/02/09 00:12:16;;;;;;;8.88;4.47;;;;;;;0.94;65.03;99931.69;1700760;83;22258;-74
2022/02/09 00:14:51;;;;;;;9.63;5.03;;;;;;;0.96;65.15;99935.52;1698025;83;20966;-72
2022/02/09 00:17:27;;;;;;;9.08;4.60;;;;;;;0.97;65.22;99934.16;1699450;83;21009;-73
2022/02/09 00:32:53;;;;;;;10.40;5.12;;;;;;;1.01;65.94;99923.15;1730166;82;20966;-73
2022/02/09 00:35:31;;;;;;;11.30;5.17;;;;;;;1.02;66.02;99922.23;1723322;83;21448;-76
2022/02/09 01:02:40;;;;;;;9.88;4.97;;;;;;;1.00;66.92;99893.70;1714022;83;20991;-72
2022/02/09 01:55:26;;;;;;;60.17;30.12;;;;;;;0.87;68.00;99861.41;1660002;86;21000;-73
2022/02/09 01:56:36;;;;;;;71.87;32.13;;;;;;;0.86;68.12;99859.24;1670253;84;20994;-74
2022/02/09 01:59:04;;;;;;;132.18;57.15;;;;;;;0.89;68.14;99863.94;1695314;84;21553;-75
2022/02/09 02:01:31;;;;;;;46.53;21.07;;;;;;;0.89;68.17;99867.38;1668433;84;21004;-73
2022/02/09 02:03:58;;;;;;;25.05;11.73;;;;;;;0.90;68.19;99869.06;1670135;84;21013;-74
2022/02/09 02:06:24;;;;;;;20.05;10.15;;;;;;;0.90;68.23;99868.22;1668541;86;20976;-73
2022/02/09 02:08:53;;;;;;;96.97;43.25;;;;;;;0.91;68.26;99869.90;1668363;85;21462;-74
2022/02/09 02:11:28;;;;;;;95.75;40.70;;;;;;;0.91;68.29;99869.90;1660166;86;21808;-74
2022/02/09 02:16:26;;;;;;;115.20;43.60;;;;;;;0.89;68.39;99869.98;1668251;85;21075;-74
2022/02/09 02:18:55;;;;;;;105.43;39.05;;;;;;;0.88;68.42;99868.75;1666758;85;20987;-74
2022/02/09 02:29:30;;;;;;;32.00;14.68;;;;;;;0.81;68.73;99872.09;1609794;88;21471;-73
2022/02/09 02:35:13;;;;;;;54.15;22.82;;;;;;;0.80;68.92;99873.85;1680365;83;21462;-73
2022/02/09 02:37:40;;;;;;;36.88;16.55;;;;;;;0.77;68.99;99877.91;1641874;85;21042;-72
2022/02/09 02:40:05;;;;;;;36.28;19.20;;;;;;;0.76;69.12;99874.05;1614605;87;21078;-73
2022/02/09 02:58:51;;;;;;;14.87;8.18;;;;;;;0.76;69.58;99856.70;1687131;84;21079;-72
2022/02/09 03:09:00;;;;;;;11.10;6.60;;;;;;;0.76;69.93;99852.80;1692088;83;21070;-73
2022/02/09 03:11:37;;;;;;;13.75;7.65;;;;;;;0.76;70.03;99842.86;1701420;83;21013;-73
2022/02/09 03:13:58;;;;;;;18.90;10.75;;;;;;;0.73;70.16;99841.72;1710459;83;21384;-73
2022/02/09 03:16:26;;;;;;;19.70;10.10;;;;;;;0.72;70.27;99838.73;1710889;83;21794;-72
2022/02/09 03:21:31;;;;;;;13.60;7.65;;;;;;;0.71;70.49;99834.45;1698890;84;21013;-73
2022/02/09 03:23:51;;;;;;;12.60;6.85;;;;;;;0.67;70.66;99827.23;1707829;83;21002;-74
2022/02/09 03:50:22;;;;;;;17.12;6.87;;;;;;;0.59;71.56;99843.68;1713731;83;20966;-73
2022/02/09 03:57:31;;;;;;;12.98;6.83;;;;;;;0.57;71.73;99851.98;1700296;83;21062;-73
2022/02/09 03:59:57;;;;;;;13.78;6.80;;;;;;;0.57;71.80;99849.37;1692143;84;21002;-73
2022/02/09 04:02:25;;;;;;;16.00;7.00;;;;;;;0.55;71.83;99847.31;1693019;84;21558;-72
2022/02/09 04:04:56;;;;;;;11.57;5.90;;;;;;;0.57;71.87;99841.13;1690667;84;20998;-73
2022/02/09 04:07:20;;;;;;;13.28;6.90;;;;;;;0.59;71.93;99841.54;1692234;84;21556;-73
2022/02/09 04:09:50;;;;;;;13.90;8.13;;;;;;;0.56;72.02;99847.70;1691794;83;20878;-73
2022/02/09 04:12:33;;;;;;;20.32;10.78;;;;;;;0.55;72.08;99855.11;1701544;82;21008;-73
2022/02/09 04:14:59;;;;;;;20.72;11.60;;;;;;;0.56;72.17;99858.09;1687014;83;21040;-73
2022/02/09 04:20:19;;;;;;;14.85;8.13;;;;;;;0.56;72.29;99852.44;1700567;84;21874;-75
2022/02/09 04:38:55;;;;;;;21.90;10.93;;;;;;;0.59;72.58;99870.13;1663682;85;21017;-71
2022/02/09 04:43:56;;;;;;;20.95;11.00;;;;;;;0.55;72.69;99863.75;1714046;83;21020;-71
2022/02/09 04:49:07;;;;;;;17.95;9.23;;;;;;;0.60;72.77;99873.11;1639737;86;20998;-71
2022/02/09 04:56:27;;;;;;;33.23;14.13;;;;;;;0.67;73.02;99882.28;1713396;83;21058;-71
2022/02/09 04:58:51;;;;;;;31.23;13.03;;;;;;;0.70;73.15;99880.86;1681377;82;21826;-71
2022/02/09 05:21:04;;;;;;;21.35;10.35;;;;;;;0.72;74.67;99876.42;1693510;84;21012;-72
2022/02/09 05:28:11;;;;;;;21.05;9.48;;;;;;;0.69;75.42;99881.77;1668509;84;21000;-75
2022/02/09 05:30:35;;;;;;;27.57;13.20;;;;;;;0.72;75.86;99878.56;1674569;85;21029;-75
2022/02/09 05:33:04;;;;;;;27.35;14.23;;;;;;;0.72;75.86;99878.56;1679743;84;21048;-75
2022/02/09 05:35:30;;;;;;;22.75;11.83;;;;;;;0.72;75.96;99874.67;1690741;84;21443;-78
2022/02/09 05:37:57;;;;;;;31.57;14.75;;;;;;;0.74;76.06;99876.73;1690849;83;22207;-77
2022/02/09 05:40:24;;;;;;;23.50;11.88;;;;;;;0.77;76.16;99867.94;1694039;83;21561;-81
2022/02/09 05:42:51;;;;;;;27.75;12.98;;;;;;;0.78;76.27;99864.45;1691383;84;21522;-82
2022/02/09 05:45:20;;;;;;;25.70;13.08;;;;;;;0.79;76.36;99866.97;1692621;83;21006;-81
2022/02/09 05:50:30;;;;;;;14.78;9.30;;;;;;;0.84;76.49;99876.68;1685245;84;22241;-80
2022/02/09 05:57:50;;;;;;;18.30;8.93;;;;;;;;;;1682240;83;21031;-81
2022/02/09 06:00:12;;;;;;;13.62;8.05;;;;;;;0.95;76.66;99889.16;1694268;83;21023;-81
2022/02/09 06:02:41;;;;;;;14.00;7.78;;;;;;;0.95;76.69;99880.52;1695437;84;21856;-80
2022/02/09 06:05:08;;;;;;;12.63;7.28;;;;;;;0.96;76.71;99889.55;1679398;84;20965;-80
2022/02/09 06:07:35;;;;;;;11.78;6.72;;;;;;;0.96;76.72;99888.70;1696422;83;21415;-80
2022/02/09 06:10:04;;;;;;;11.53;6.22;;;;;;;0.96;76.81;99887.41;1696251;84;21027;-81
2022/02/09 06:12:43;;;;;;;12.82;6.85;;;;;;;0.97;76.84;99889.95;1696531;83;21052;-80
2022/02/09 06:15:47;;;;;;;13.88;7.80;;;;;;;0.98;76.86;99893.41;1692304;83;21829;-79
2022/02/09 06:20:36;;;;;;;22.27;13.93;;;;;;;1.01;76.95;99898.45;1689840;84;21124;-79
2022/02/09 06:23:05;;;;;;;17.05;9.40;;;;;;;1.04;77.00;99908.69;1666327;84;21000;-80
2022/02/09 06:25:31;;;;;;;12.00;7.25;;;;;;;1.07;77.01;99906.80;1681348;84;20962;-80
2022/02/09 06:27:58;;;;;;;11.63;7.47;;;;;;;1.09;76.99;99910.63;1667838;86;22566;-81
2022/02/09 06:30:26;;;;;;;14.35;7.97;;;;;;;1.12;77.00;99906.11;1669396;84;21160;-80
2022/02/09 06:32:53;;;;;;;10.90;7.08;;;;;;;1.14;76.99;99915.14;1695580;84;21118;-81
2022/02/09 06:35:20;;;;;;;14.23;7.72;;;;;;;1.16;76.96;99922.44;1690964;84;21063;-81
2022/02/09 06:37:48;;;;;;;12.75;7.53;;;;;;;1.17;76.94;99919.38;1693389;84;21508;-81
2022/02/09 06:40:17;;;;;;;12.00;7.10;;;;;;;1.18;76.93;99920.59;1693564;84;22539;-81
2022/02/09 06:42:43;;;;;;;12.90;7.50;;;;;;;1.21;76.94;99916.99;1663625;84;21076;-79
2022/02/09 06:45:23;;;;;;;11.70;7.22;;;;;;;1.24;76.92;99915.53;1690675;84;21019;-80
2022/02/09 06:47:40;;;;;;;13.85;8.93;;;;;;;1.27;76.91;99914.11;1691126;84;21019;-80
2022/02/09 06:50:13;;;;;;;11.93;6.65;;;;;;;1.30;76.89;99916.55;1695012;84;21044;-80
2022/02/09 06:52:40;;;;;;;15.45;7.20;;;;;;;1.34;76.84;99925.42;1684016;84;21849;-81
2022/02/09 06:55:20;;;;;;;13.05;7.15;;;;;;;1.36;76.80;99923.61;1678354;84;21050;-80
2022/02/09 07:00:20;;;;;;;11.48;6.83;;;;;;;1.44;76.74;99932.31;1660737;85;21465;-80
2022/02/09 07:02:46;;;;;;;13.22;7.20;;;;;;;1.45;76.72;99927.53;1688337;83;21057;-80
2022/02/09 07:05:14;;;;;;;9.73;6.80;;;;;;;1.49;76.73;99928.20;1659297;85;21850;-80
2022/02/09 07:07:41;;;;;;;13.55;7.85;;;;;;;1.54;76.72;99917.94;1690790;84;21047;-80
2022/02/09 07:10:11;;;;;;;12.58;7.20;;;;;;;;;;1707251;83;21584;-80
2022/02/09 07:12:38;;;;;;;10.20;6.70;;;;;;;1.69;76.63;99938.02;1699485;83;21475;-81
2022/02/09 07:15:09;;;;;;;11.55;7.60;;;;;;;1.73;76.47;99933.48;1680147;85;21504;-79
2022/02/09 07:17:37;;;;;;;13.30;7.40;;;;;;;1.76;76.34;99939.02;1682774;84;21036;-80
2022/02/09 07:20:13;;;;;;;9.55;6.72;;;;;;;1.80;76.33;99928.81;1671172;83;21146;-80
2022/02/09 07:22:37;;;;;;;12.03;6.80;;;;;;;1.85;76.27;99930.75;1696867;83;21380;-79
2022/02/09 07:25:09;;;;;;;10.30;6.97;;;;;;;1.94;76.26;99933.72;1684342;83;21092;-85
2022/02/09 07:30:20;;;;;;;10.30;6.37;;;;;;;2.17;76.11;99939.05;1694234;83;21854;-74
2022/02/09 07:32:47;;;;;;;12.30;6.70;;;;;;;2.33;75.86;99948.22;1701825;83;21012;-77
2022/02/09 07:35:13;;;;;;;9.00;6.50;;;;;;;2.44;75.54;99950.27;1682450;83;21030;-79
2022/02/09 07:37:40;;;;;;;11.35;6.58;;;;;;;2.51;75.09;99941.17;1674728;85;21036;-75
2022/02/09 07:40:11;;;;;;;9.60;6.60;;;;;;;2.56;74.83;99947.00;1710592;83;21113;-74
2022/02/09 07:42:52;;;;;;;10.03;6.60;;;;;;;2.63;74.62;99939.70;1711172;83;21837;-78
2022/02/09 07:50:39;;;;;;;10.78;6.47;;;;;;;2.70;73.59;99943.64;1691815;84;22087;-79
2022/02/09 07:52:53;;;;;;;9.63;5.97;;;;;;;2.69;73.55;99945.41;1682585;84;21039;-76
2022/02/09 07:55:17;;;;;;;8.33;5.55;;;;;;;2.71;73.50;99955.31;1692166;83;22314;-77
2022/02/09 07:57:44;;;;;;;9.33;6.60;;;;;;;2.70;73.39;99946.25;1709436;83;21556;-78
2022/02/09 08:00:13;;;;;;;11.15;7.05;;;;;;;2.68;73.42;99937.67;1686129;84;21040;-78
2022/02/09 08:02:45;;;;;;;9.13;6.30;;;;;;;2.71;73.52;99944.89;1645309;86;21581;-79
2022/02/09 08:05:12;;;;;;;8.83;5.90;;;;;;;2.77;73.47;99941.09;1673831;84;21046;-80
2022/02/09 08:07:38;;;;;;;9.18;5.92;;;;;;;2.79;73.35;99947.89;1647352;86;21853;-77
2022/02/09 08:10:15;;;;;;;8.03;6.33;;;;;;;2.79;73.25;99951.81;1679980;84;21052;-78
2022/02/09 08:20:23;;;;;;;8.55;6.22;;;;;;;2.75;73.21;99950.77;1663101;84;21069;-78
2022/02/09 08:28:44;;;;;;;9.48;6.78;;;;;;;2.75;73.68;99958.13;1660327;84;20426;-78
2022/02/09 08:31:22;;;;;;;8.93;6.83;;;;;;;2.79;73.77;99964.84;1674492;84;21071;-77
2022/02/09 08:33:29;;;;;;;9.53;6.97;;;;;;;2.85;73.88;99973.66;1673278;84;22622;-73
2022/02/09 08:35:57;;;;;;;8.65;6.80;;;;;;;2.90;73.87;99968.67;1669865;84;21017;-72
2022/02/09 08:38:29;;;;;;;8.83;7.10;;;;;;;2.96;73.91;99981.37;1684984;83;20972;-72
2022/02/09 08:40:55;;;;;;;9.78;7.22;;;;;;;3.00;73.89;99979.83;1675774;84;21008;-74
2022/02/09 08:43:22;;;;;;;9.18;7.45;;;;;;;3.03;73.86;99982.72;1666482;84;21069;-74
2022/02/09 08:45:49;;;;;;;8.48;6.83;;;;;;;3.04;73.87;99984.41;1677277;84;22213;-73
2022/02/09 08:48:20;;;;;;;8.95;7.45;;;;;;;3.02;73.93;99992.78;1662360;84;20971;-74
2022/02/09 08:50:49;;;;;;;8.45;6.87;;;;;;;3.04;73.95;99993.07;1679056;84;20973;-72
2022/02/09 08:53:16;;;;;;;8.65;7.58;;;;;;;3.08;73.95;99991.97;1668640;84;21176;-71
2022/02/09 08:55:44;;;;;;;12.47;7.83;;;;;;;3.08;73.96;99994.58;1674157;84;21035;-71
2022/02/09 08:58:12;;;;;;;9.35;7.47;;;;;;;3.07;73.97;99998.11;1665218;85;22214;-69
2022/02/09 09:00:40;;;;;;;7.97;7.17;;;;;;;3.10;73.96;99993.22;1673989;83;21091;-71
2022/02/09 09:05:44;;;;;;;9.80;7.72;;;;;;;3.11;74.04;99994.42;1693749;83;21551;-72
2022/02/09 09:11:17;;;;;;;8.58;7.20;;;;;;;3.11;74.13;99998.34;1672981;84;22511;-70
2022/02/09 09:19:04;;;;;;;9.75;7.67;;;;;;;2.98;74.60;100006.44;1689805;83;21034;-71
2022/02/09 10:01:17;;;;;;;10.30;7.58;;;;;;;3.22;74.94;100032.14;1701994;83;21075;-71
2022/02/09 10:02:49;;;;;;;9.38;7.20;;;;;;;3.26;74.79;100031.88;1694777;82;21420;-70
2022/02/09 10:05:36;;;;;;;10.20;7.57;;;;;;;3.33;74.64;100029.78;1705875;83;21817;-73
2022/02/09 10:14:13;;;;;;;12.33;7.37;;;;;;;3.37;74.44;100024.30;1686241;83;21097;-73
2022/02/09 10:34:00;;;;;;;10.45;6.30;;;;;;;3.65;72.69;100046.27;1687952;84;21802;-74
2022/02/09 10:36:27;;;;;;;9.73;6.17;;;;;;;3.67;72.57;100049.66;1678562;84;22058;-73
2022/02/09 10:39:09;;;;;;;9.15;6.22;;;;;;;3.66;72.53;100051.39;1701547;83;21479;-74
2022/02/09 10:41:43;;;;;;;8.98;6.45;;;;;;;3.69;72.50;100047.80;1688757;84;21095;-76
2022/02/09 10:44:15;;;;;;;7.50;5.60;;;;;;;3.71;72.45;100050.69;1659308;84;21083;-74
2022/02/09 10:46:57;;;;;;;8.95;5.92;;;;;;;3.73;72.35;100054.05;1677760;84;21912;-72
2022/02/09 10:49:29;;;;;;;7.85;6.12;;;;;;;3.74;72.30;100039.22;1707144;83;21070;-75
2022/02/09 10:52:06;;;;;;;10.60;6.85;;;;;;;3.78;72.26;100059.50;1690653;83;20997;-74
2022/02/09 10:54:24;;;;;;;10.58;5.95;;;;;;;3.81;72.23;100048.40;1689635;83;21046;-72
2022/02/09 10:57:00;;;;;;;9.40;5.90;;;;;;;3.83;72.05;100051.77;1691784;84;21028;-72
2022/02/09 10:59:29;;;;;;;9.73;6.28;;;;;;;3.83;71.96;100062.21;1676657;84;22534;-75
2022/02/09 11:02:00;;;;;;;8.58;6.40;;;;;;;3.82;71.94;100061.84;1701710;83;20965;-72
2022/02/09 11:04:30;;;;;;;8.23;5.70;;;;;;;3.87;71.95;100070.27;1708387;83;21489;-71
2022/02/09 11:06:56;;;;;;;6.92;5.05;;;;;;;3.91;71.88;100067.84;1689242;83;21021;-71
2022/02/09 11:09:23;;;;;;;7.42;4.95;;;;;;;3.93;71.81;100063.84;1719375;82;21027;-73
2022/02/09 11:11:51;;;;;;;8.15;5.87;;;;;;;3.97;71.71;100071.43;1721349;83;22215;-70
2022/02/09 11:14:20;;;;;;;8.95;6.28;;;;;;;4.03;71.69;100075.45;1711738;83;21024;-71
2022/02/09 11:16:56;;;;;;;7.25;5.05;;;;;;;4.09;71.54;100072.50;1691385;83;21093;-72
2022/02/09 11:19:32;;;;;;;6.87;4.83;;;;;;;4.15;71.30;100076.08;1706789;82;21064;-74
2022/02/09 11:22:15;;;;;;;7.80;4.35;;;;;;;4.20;71.15;100081.02;1702143;83;21080;-71
2022/02/09 11:24:45;;;;;;;7.97;4.03;;;;;;;4.24;70.84;100077.28;1708420;83;22530;-70
2022/02/09 11:27:22;;;;;;;7.85;4.22;;;;;;;4.28;70.65;100085.34;1688896;84;21028;-70
2022/02/09 11:29:51;;;;;;;5.80;4.00;;;;;;;4.30;70.54;100085.63;1692244;84;20996;-70
2022/02/09 11:43:35;;;;;;;49.13;31.20;;;;;;;4.39;69.73;100099.09;1693020;84;21013;-69
2022/02/09 11:49:15;;;;;;;26.68;18.90;;;;;;;4.45;69.44;100093.52;1700862;83;21457;-68
2022/02/09 11:52:06;;;;;;;20.12;13.03;;;;;;;4.49;69.11;100097.16;1701542;83;22854;-70
2022/02/09 11:57:46;;;;;;;9.73;5.80;;;;;;;4.58;68.69;100101.85;1689248;83;21005;-69
2022/02/09 12:00:22;;;;;;;14.00;9.55;;;;;;;4.58;68.26;100097.09;1686562;84;20949;-72
2022/02/09 12:11:39;;;;;;;15.38;10.25;;;;;;;4.82;66.86;100113.09;1697351;84;21021;-70
2022/02/09 12:19:14;;;;;;;3.98;2.10;;;;;;;5.09;65.62;100116.66;1719090;82;22060;-71
2022/02/09 12:21:52;;;;;;;3.92;2.02;;;;;;;5.12;65.07;100124.83;1720234;83;21031;-71
2022/02/09 12:24:27;;;;;;;3.35;2.12;;;;;;;5.12;64.67;100119.13;1703776;83;21078;-71
2022/02/09 12:27:13;;;;;;;5.08;2.60;;;;;;;5.08;64.59;100125.92;1718936;82;21003;-71
2022/02/09 12:29:45;;;;;;;13.03;8.80;;;;;;;5.05;64.60;100134.81;1710627;83;21051;-73
2022/02/09 12:32:20;;;;;;;18.45;12.63;;;;;;;5.01;64.66;100137.23;1690266;84;21804;-74
2022/02/09 12:35:04;;;;;;;11.95;7.15;;;;;;;5.01;64.78;100139.84;1702477;83;20965;-72
2022/02/09 12:37:34;;;;;;;29.92;17.52;;;;;;;5.02;64.84;100149.41;1696505;83;21558;-71
2022/02/09 12:40:19;;;;;;;14.93;8.60;;;;;;;5.03;64.91;100145.02;1667522;84;20981;-72
2022/02/09 12:42:48;;;;;;;12.55;6.72;;;;;;;5.04;64.80;100144.08;1692624;83;21017;-72
2022/02/09 12:45:19;;;;;;;12.65;7.35;;;;;;;5.04;64.57;100150.15;1689850;84;21859;-71
2022/02/09 12:47:54;;;;;;;24.45;14.85;;;;;;;5.05;64.55;100158.38;1690457;84;20993;-71
2022/02/09 12:50:32;;;;;;;11.28;7.22;;;;;;;5.09;64.37;100161.64;1690356;84;20998;-74
2022/02/09 12:52:59;;;;;;;24.10;16.10;;;;;;;5.08;63.57;100162.11;1692953;84;21053;-72
2022/02/09 12:55:32;;;;;;;28.83;18.85;;;;;;;5.12;63.56;100161.48;1683922;84;21031;-74
2022/02/09 12:58:08;;;;;;;12.68;6.60;;;;;;;5.11;63.09;100170.23;1691651;84;22363;-71
2022/02/09 13:00:44;;;;;;;11.93;6.55;;;;;;;5.11;62.50;100176.31;1660505;85;21009;-70
2022/02/09 13:03:21;;;;;;;8.33;5.95;;;;;;;5.07;62.28;100178.75;1684499;85;21264;-71
2022/02/09 13:05:51;;;;;;;8.05;4.62;;;;;;;5.04;62.38;100180.25;1695470;83;20965;-71
2022/02/09 13:08:22;;;;;;;20.20;13.53;;;;;;;5.03;62.21;100183.80;1688921;85;20961;-71
2022/02/09 13:10:50;;;;;;;7.08;4.08;;;;;;;5.01;62.36;100190.05;1688528;85;21811;-71
2022/02/09 13:13:23;;;;;;;4.80;2.42;;;;;;;4.98;61.98;100195.47;1678031;84;20986;-72
2022/02/09 13:15:51;;;;;;;7.30;4.50;;;;;;;4.92;61.73;100195.35;1642287;85;21523;-72
2022/02/09 14:18:10;;;;;;;57.35;31.97;;;;;;;4.41;58.40;100279.81;1637078;85;21076;-71
2022/02/09 14:55:52;;;;;;;5.17;2.12;;;;;;;4.11;59.96;100315.48;1683226;84;21131;-70
2022/02/09 14:58:22;;;;;;;4.92;1.82;;;;;;;4.08;60.01;100315.65;1664069;86;21548;-70
2022/02/09 15:07:01;;;;;;;6.67;2.80;;;;;;;4.04;60.17;100318.87;1714140;83;21438;-70
2022/02/09 15:14:07;;;;;;;5.95;2.72;;;;;;;4.05;60.29;100328.86;1693441;84;21795;-70
2022/02/09 15:16:29;;;;;;;4.05;1.90;;;;;;;4.04;60.28;100335.86;1711426;83;20963;-70
2022/02/09 15:22:00;;;;;;;6.42;2.40;;;;;;;4.01;60.38;100339.48;1693379;83;21077;-70
2022/02/09 15:24:07;;;;;;;5.95;2.20;;;;;;;3.98;60.42;100342.27;1689539;84;20962;-70
2022/02/09 15:26:34;;;;;;;5.95;2.33;;;;;;;3.96;60.48;100344.12;1692215;84;22848;-70
2022/02/09 15:29:01;;;;;;;4.65;2.20;;;;;;;3.97;60.51;100347.12;1693804;83;21121;-70
2022/02/09 15:31:44;;;;;;;5.28;2.08;;;;;;;3.97;60.56;100353.66;1696814;83;21010;-71
2022/02/09 15:34:35;;;;;;;5.42;2.50;;;;;;;3.97;60.66;100352.81;1691549;84;21074;-70
2022/02/09 15:37:00;;;;;;;5.35;2.70;;;;;;;3.95;60.67;100355.48;1682989;84;21566;-70
2022/02/09 15:39:19;;;;;;;5.67;2.95;;;;;;;3.92;60.73;100358.26;1700188;83;22727;-70
2022/02/09 16:09:15;;;;;;;6.53;2.60;;;;;;;3.80;62.07;100401.17;1667319;86;21021;-71
2022/02/09 16:22:30;;;;;;;9.38;3.30;;;;;;;3.67;63.03;100411.41;1706054;84;20973;-70
2022/02/09 16:46:30;;;;;;;6.50;3.10;;;;;;;3.52;63.94;100456.08;1671640;85;21876;-73
2022/02/09 16:51:27;;;;;;;8.00;2.83;;;;;;;3.45;64.23;100459.91;1697488;83;21082;-72
2022/02/09 16:56:38;;;;;;;7.72;2.70;;;;;;;3.42;64.52;100456.15;1684002;85;21056;-74
2022/02/09 17:15:44;;;;;;;12.90;3.65;;;;;;;3.30;65.44;100472.41;1689327;85;21433;-76
2022/02/09 17:20:51;;;;;;;9.18;3.20;;;;;;;3.27;65.55;100477.76;1698097;84;21048;-79
2022/02/09 17:23:17;;;;;;;6.87;2.77;;;;;;;3.24;65.62;100479.22;1683775;84;21061;-78
2022/02/09 17:25:45;;;;;;;10.13;2.90;;;;;;;3.23;65.66;100477.53;1664858;84;21807;-77
2022/02/09 17:28:16;;;;;;;10.10;3.00;;;;;;;3.22;65.74;100478.45;1710950;83;21054;-81
2022/02/09 17:58:05;;;;;;;9.50;2.90;;;;;;;3.03;65.92;100481.92;1675833;85;22036;-84
2022/02/09 18:00:16;;;;;;;9.53;3.00;;;;;;;3.04;65.97;100484.91;1704347;83;21050;-84
2022/02/09 18:02:50;;;;;;;9.03;3.25;;;;;;;3.02;65.95;100489.37;1709593;83;21027;-82
2022/02/09 18:08:05;;;;;;;9.30;2.67;;;;;;;3.05;65.81;100494.44;1712395;83;21022;-82
2022/02/09 18:32:07;;;;;;;9.58;3.35;;;;;;;3.12;64.98;100523.71;1733404;82;21812;-76
2022/02/09 19:04:13;;;;;;;9.20;3.67;;;;;;;3.13;64.80;100544.52;1750854;80;20960;-77
2022/02/09 19:07:06;;;;;;;10.20;3.52;;;;;;;3.12;64.81;100549.81;1752741;80;21435;-73
2022/02/09 19:14:32;;;;;;;10.85;3.85;;;;;;;3.09;64.88;100551.27;1737487;81;21756;-76
2022/02/09 19:17:19;;;;;;;8.45;3.42;;;;;;;3.07;64.92;100549.16;1742816;80;21090;-78
2022/02/09 19:19:55;;;;;;;8.30;3.05;;;;;;;3.07;64.95;100550.00;1736722;80;21467;-74
2022/02/09 19:46:32;;;;;;;8.20;3.10;;;;;;;2.97;65.50;100583.95;1735734;81;21137;-71
2022/02/09 19:49:00;;;;;;;8.45;3.37;;;;;;;2.96;65.57;100580.11;1741133;81;20946;-72
2022/02/09 19:51:38;;;;;;;12.13;3.45;;;;;;;2.97;65.62;100575.28;1751793;81;21886;-72
2022/02/09 19:56:19;;;;;;;8.80;3.20;;;;;;;2.96;65.68;100575.73;1751649;81;21076;-74
2022/02/09 19:58:56;;;;;;;11.25;3.33;;;;;;;2.96;65.70;100575.73;1734597;81;21126;-73
2022/02/09 20:01:23;;;;;;;10.43;3.22;;;;;;;2.95;65.71;100570.59;1759392;80;20987;-74
2022/02/09 20:03:50;;;;;;;9.30;3.20;;;;;;;2.94;65.75;100574.97;1742964;81;22225;-75
2022/02/09 20:06:17;;;;;;;9.95;4.17;;;;;;;2.93;65.73;100571.12;1754771;81;20983;-73
2022/02/09 20:08:44;;;;;;;9.88;3.67;;;;;;;2.92;65.75;100566.83;1748781;80;20982;-72
2022/02/09 20:11:17;;;;;;;10.20;3.90;;;;;;;2.90;65.75;100560.84;1741275;82;20962;-71
2022/02/09 20:13:39;;;;;;;10.35;4.15;;;;;;;2.87;65.75;100560.03;1753285;81;20999;-75
2022/02/09 20:16:06;;;;;;;9.95;3.90;;;;;;;2.84;65.73;100564.09;1756474;81;21757;-72
2022/02/09 20:18:32;;;;;;;12.85;4.05;;;;;;;2.80;65.76;100557.33;1751223;81;20971;-71
2022/02/09 20:21:01;;;;;;;10.38;3.85;;;;;;;2.78;65.79;100566.12;1743410;81;21419;-75
2022/02/09 20:23:28;;;;;;;8.75;4.08;;;;;;;2.73;65.81;100562.42;1751280;80;21031;-73
2022/02/09 20:25:55;;;;;;;12.75;4.90;;;;;;;2.68;65.86;100563.06;1732469;81;21080;-73
2022/02/09 20:28:23;;;;;;;10.98;4.28;;;;;;;2.64;65.91;100565.89;1742240;82;22073;-73
2022/02/09 20:30:58;;;;;;;11.65;4.55;;;;;;;2.61;65.96;100569.48;1748876;81;20981;-72
2022/02/09 20:33:23;;;;;;;10.63;4.33;;;;;;;2.57;66.03;100574.42;1718519;80;21073;-74
2022/02/09 20:35:47;;;;;;;10.60;3.85;;;;;;;2.53;66.08;100576.79;1724667;82;21043;-77
2022/02/09 20:38:23;;;;;;;10.45;3.98;;;;;;;2.49;66.18;100576.52;1747944;81;21102;-76
2022/02/09 20:40:55;;;;;;;11.83;4.33;;;;;;;2.44;66.27;100589.76;1713406;82;21827;-77
2022/02/09 20:43:22;;;;;;;13.05;4.12;;;;;;;2.38;66.43;100588.70;1754035;78;21028;-79
2022/02/09 20:45:51;;;;;;;12.00;4.28;;;;;;;2.34;66.51;100585.00;1732146;81;21099;-76
2022/02/09 20:48:23;;;;;;;11.45;3.87;;;;;;;2.29;66.59;100584.72;1723326;81;21026;-78
2022/02/09 20:50:46;;;;;;;12.15;5.17;;;;;;;2.25;66.66;100585.77;1757824;81;21046;-78
2022/02/09 20:53:14;;;;;;;12.55;4.22;;;;;;;2.21;66.73;100592.00;1769638;79;22198;-73
2022/02/09 20:55:42;;;;;;;11.45;4.72;;;;;;;2.20;66.78;100593.37;1743962;81;20952;-75
2022/02/09 20:58:09;;;;;;;13.15;4.45;;;;;;;2.17;66.79;100598.27;1718142;80;21068;-74
2022/02/09 21:00:47;;;;;;;12.73;4.35;;;;;;;2.15;66.79;100597.48;1750773;81;21010;-75
2022/02/09 21:05:56;;;;;;;14.20;5.40;;;;;;;2.05;66.92;100603.98;1721729;82;21837;-80
2022/02/09 21:08:40;;;;;;;14.50;6.28;;;;;;;2.00;66.96;100600.25;1715681;82;21446;-82
2022/02/09 21:16:28;;;;;;;12.90;4.60;;;;;;;1.91;67.05;100616.25;1745364;81;21012;-80
2022/02/09 21:24:21;;;;;;;28.00;13.10;;;;;;;1.79;67.25;100608.08;1752972;80;21025;-76
2022/02/09 21:56:29;;;;;;;16.73;8.08;;;;;;;1.54;67.42;100589.95;1749804;80;21039;-76
2022/02/09 21:59:18;;;;;;;15.50;7.15;;;;;;;1.51;67.42;100589.63;1752995;81;21752;-75
2022/02/09 22:01:53;;;;;;;16.80;7.60;;;;;;;1.49;67.43;100593.20;1727231;82;21096;-76
2022/02/09 22:20:35;;;;;;;24.47;11.55;;;;;;;1.22;67.64;100584.23;1735461;81;21016;-76
2022/02/09 22:28:26;;;;;;;29.42;14.40;;;;;;;1.08;67.80;100590.41;1725402;83;21063;-76
2022/02/09 22:50:40;;;;;;;28.32;14.20;;;;;;;0.92;68.46;100617.88;1705572;83;21097;-76
2022/02/09 22:55:44;;;;;;;27.37;13.65;;;;;;;0.88;68.64;100617.14;1723837;81;20931;-76
2022/02/09 22:58:11;;;;;;;24.02;11.50;;;;;;;0.85;68.76;100595.12;1717594;82;21046;-75
2022/02/09 23:07:00;;;;;;;20.60;9.00;;;;;;;0.71;69.16;100588.28;1731363;82;22236;-75
2022/02/09 23:14:09;;;;;;;27.40;10.55;;;;;;;0.65;69.49;100584.59;1731014;82;21433;-75
2022/02/09 23:17:12;;;;;;;21.97;8.53;;;;;;;0.65;69.57;100581.54;1718055;83;21026;-75
2022/02/09 23:27:33;;;;;;;19.60;8.05;;;;;;;0.60;69.95;100598.22;1708207;82;21132;-76
2022/02/09 23:54:44;;;;;;;20.97;9.15;;;;;;;0.57;71.11;100575.30;1748665;81;20994;-75
